createdAt,value
2023-02-25T00:09:57.660Z,94715.06
2023-02-25T00:20:01.005Z,94693.87
2023-02-25T00:30:05.731Z,94670.27
2023-02-25T00:40:16.704Z,94659.59
2023-02-25T00:50:19.890Z,94649.39
2023-02-25T01:00:25.676Z,94623.16
2023-02-25T01:10:28.940Z,94596.89
2023-02-25T01:20:32.108Z,94586.73
2023-02-25T01:30:38.480Z,94580.27
2023-02-25T01:40:41.817Z,94570.85
2023-02-25T01:50:52.059Z,94577.48
2023-02-25T02:00:56.084Z,94592.14
2023-02-25T02:10:59.391Z,94608.11
2023-02-25T02:21:44.562Z,94602.21
2023-02-25T02:32:10.768Z,94601.92
2023-02-25T02:42:37.907Z,94605.83
2023-02-25T02:52:46.873Z,94583.29
2023-02-25T03:03:00.730Z,94584.19
2023-02-25T03:13:04.819Z,94577.86
2023-02-25T03:23:15.591Z,94589.30
2023-02-25T03:33:33.248Z,94587.63
2023-02-25T03:43:42.148Z,94572.66
2023-02-25T03:53:45.581Z,94570.41
2023-02-25T04:03:55.053Z,94566.55
2023-02-25T04:13:59.038Z,94560.02
2023-02-25T04:24:05.804Z,94558.67
2023-02-25T04:34:08.964Z,94585.89
2023-02-25T04:44:12.570Z,94609.27
2023-02-25T04:54:15.957Z,94603.66
2023-02-25T05:04:19.086Z,94643.67
2023-02-25T05:14:22.373Z,94684.20
2023-02-25T05:24:26.466Z,94690.59
2023-02-25T05:34:30.670Z,94705.17
2023-02-25T05:44:34.152Z,94716.66
2023-02-25T05:54:37.282Z,94727.73
2023-02-25T06:04:40.397Z,94732.48
2023-02-25T06:14:43.555Z,94732.80
2023-02-25T06:24:46.959Z,94736.41
2023-02-25T06:34:50.060Z,94736.27
2023-02-25T06:44:53.322Z,94740.48
2023-02-25T06:54:56.512Z,94743.95
2023-02-25T07:05:01.474Z,94734.39
2023-02-25T07:15:05.566Z,94725.17
2023-02-25T07:25:11.995Z,94731.86
2023-02-25T07:35:15.364Z,94718.58
2023-02-25T07:45:19.605Z,94719.17
2023-02-25T07:55:23.939Z,94715.67
2023-02-25T08:05:27.186Z,94710.64
2023-02-25T08:15:30.444Z,94706.39
2023-02-25T08:25:35.847Z,94692.54
2023-02-25T08:35:39.210Z,94690.89
2023-02-25T08:45:43.665Z,94688.03
2023-02-25T08:55:47.530Z,94680.73
2023-02-25T09:05:55.350Z,94684.55
2023-02-25T09:16:03.642Z,94690.48
2023-02-25T09:26:10.029Z,94694.04
2023-02-25T09:36:17.385Z,94713.16
2023-02-25T09:46:23.408Z,94719.77
2023-02-25T09:56:27.751Z,94720.91
2023-02-25T10:06:39.289Z,94724.08
2023-02-25T10:17:09.114Z,94723.80
2023-02-25T10:27:21.902Z,94736.25
2023-02-25T10:37:34.146Z,94735.52
2023-02-25T10:47:40.873Z,94729.27
2023-02-25T10:57:45.404Z,94728.95
2023-02-25T11:07:50.381Z,94733.16
2023-02-25T11:18:02.754Z,94721.78
2023-02-25T11:28:16.497Z,94718.94
2023-02-25T11:38:28.413Z,94734.42
2023-02-25T11:48:54.781Z,94744.08
2023-02-25T11:59:29.318Z,94756.81
2023-02-25T12:10:06.265Z,94763.44
2023-02-25T12:20:51.307Z,94765.43
2023-02-25T12:31:20.436Z,94760.30
2023-02-25T12:41:54.778Z,94754.15
2023-02-25T12:52:17.716Z,94750.08
2023-02-25T13:02:42.052Z,94746.63
2023-02-25T13:12:58.923Z,94761.09
2023-02-25T13:23:17.699Z,94766.45
2023-02-25T13:33:59.879Z,94757.20
2023-02-25T13:44:15.239Z,94755.17
2023-02-25T13:54:37.637Z,94772.69
2023-02-25T14:05:04.663Z,94797.64
2023-02-25T14:15:41.130Z,94882.36
2023-02-25T14:26:02.880Z,94901.55
2023-02-25T14:36:20.627Z,94915.17
2023-02-25T14:46:43.148Z,94926.58
2023-02-25T14:56:49.085Z,94947.45
2023-02-25T15:07:20.805Z,94952.55
2023-02-25T15:17:33.209Z,94964.30
2023-02-25T15:27:36.482Z,94980.61
2023-02-25T15:37:54.771Z,94990.23
2023-02-25T15:48:28.579Z,94989.05
2023-02-25T15:58:31.990Z,95012.67
2023-02-25T16:08:47.477Z,95036.02
2023-02-25T16:18:53.287Z,95060.29
2023-02-25T16:29:38.625Z,95076.59
2023-02-25T16:39:43.500Z,95097.06
2023-02-25T16:49:47.811Z,95097.34
2023-02-25T17:00:07.062Z,95112.13
2023-02-25T17:10:26.001Z,95141.55
2023-02-25T17:20:29.666Z,95150.84
2023-02-25T17:30:34.084Z,95150.09
2023-02-25T17:40:37.506Z,95160.37
2023-02-25T17:50:40.807Z,95169.45
2023-02-25T18:00:59.003Z,95178.81
2023-02-25T18:11:37.089Z,95186.34
2023-02-25T18:21:42.880Z,95200.56
2023-02-25T18:31:46.130Z,95198.53
2023-02-25T18:41:52.353Z,95203.25
2023-02-25T18:51:55.686Z,95228.35
2023-02-25T19:02:02.192Z,95241.10
2023-02-25T19:12:05.947Z,95250.52
2023-02-25T19:22:16.502Z,95257.62
2023-02-25T19:32:21.659Z,95267.20
2023-02-25T19:42:24.819Z,95274.84
2023-02-25T19:52:29.617Z,95292.14
2023-02-25T20:02:32.913Z,95285.58
2023-02-25T20:12:37.208Z,95299.11
2023-02-25T20:22:43.324Z,95316.05
2023-02-25T20:32:46.876Z,95315.39
2023-02-25T20:42:50.148Z,95329.98
2023-02-25T20:52:53.466Z,95349.05
2023-02-25T21:03:00.713Z,95341.45
2023-02-25T21:13:03.989Z,95351.84
2023-02-25T21:23:11.201Z,95358.94
2023-02-25T21:33:15.232Z,95361.02
2023-02-25T21:43:18.553Z,95362.58
2023-02-25T21:53:23.480Z,95362.57
2023-02-25T22:03:28.041Z,95373.30
2023-02-25T22:13:35.342Z,95406.86
2023-02-25T22:23:40.200Z,95409.96
2023-02-25T22:33:45.345Z,95429.70
2023-02-25T22:43:52.098Z,95430.40
2023-02-25T22:53:56.078Z,95426.92
2023-02-25T23:04:00.355Z,95463.43
2023-02-25T23:14:04.050Z,95460.12
2023-02-25T23:24:16.520Z,95468.79
2023-02-25T23:34:21.782Z,95486.29
2023-02-25T23:44:25.409Z,95498.74
2023-02-25T23:54:28.714Z,95509.48
